Terminal Aerodrome Forecast
Issued by NWS Central Illinois

Home | Current Version | Previous Version | Text Only | Print | Product List | Glossary On
Versions: 1 2 3 4 5 6 7 8 9 10 11 12 13 14 15 16 17 18 19
407
FTUS43 KILX 011736
TAFSPI
TAF
KSPI 011736Z 0118/0218 28020G32KT P6SM BKN025
      TEMPO 0118/0122 SCT025 BKN035
     FM012200 29017G27KT P6SM BKN035
     FM020200 30011KT P6SM BKN060
     FM020500 30007KT P6SM SCT070
     FM021300 28008KT P6SM SCT100=

USA.gov is the U.S. government's official web portal to all federal, state and local government web resources and services.